sensor_id;sensor_type;location;lat;lon;timestamp;pressure;altitude;pressure_sealevel;temperature;humidity
51249;BME280;39642;47.556;18.728;2023-02-18T00:01:09;99825.53;;;21.33;33.24
51249;BME280;39642;47.556;18.728;2023-02-18T00:03:35;99816.75;;;21.32;33.26
51249;BME280;39642;47.556;18.728;2023-02-18T00:06:12;99825.63;;;21.31;33.18
51249;BME280;39642;47.556;18.728;2023-02-18T00:08:40;99817.69;;;21.31;33.24
51249;BME280;39642;47.556;18.728;2023-02-18T00:11:06;99809.81;;;21.30;33.29
51249;BME280;39642;47.556;18.728;2023-02-18T00:13:32;99804.44;;;21.31;33.25
51249;BME280;39642;47.556;18.728;2023-02-18T00:16:02;99804.50;;;21.30;33.29
51249;BME280;39642;47.556;18.728;2023-02-18T00:18:29;99795.66;;;21.31;33.34
51249;BME280;39642;47.556;18.728;2023-02-18T00:20:55;99796.56;;;21.30;33.20
51249;BME280;39642;47.556;18.728;2023-02-18T00:23:21;99790.44;;;21.29;33.36
51249;BME280;39642;47.556;18.728;2023-02-18T00:25:47;99776.34;;;21.29;33.33
51249;BME280;39642;47.556;18.728;2023-02-18T00:28:13;99776.34;;;21.29;33.36
51249;BME280;39642;47.556;18.728;2023-02-18T00:30:40;99775.50;;;21.28;33.38
51249;BME280;39642;47.556;18.728;2023-02-18T00:33:06;99779.91;;;21.28;33.36
51249;BME280;39642;47.556;18.728;2023-02-18T00:35:32;99762.34;;;21.27;33.36
51249;BME280;39642;47.556;18.728;2023-02-18T00:37:58;99767.63;;;21.27;33.37
51249;BME280;39642;47.556;18.728;2023-02-18T00:40:24;99773.91;;;21.26;33.40
51249;BME280;39642;47.556;18.728;2023-02-18T00:42:50;99776.53;;;21.26;33.41
51249;BME280;39642;47.556;18.728;2023-02-18T00:45:16;99776.53;;;21.26;33.42
51249;BME280;39642;47.556;18.728;2023-02-18T00:47:42;99773.03;;;21.25;33.43
51249;BME280;39642;47.556;18.728;2023-02-18T00:50:09;99781.84;;;21.26;33.41
51249;BME280;39642;47.556;18.728;2023-02-18T00:52:35;99773.91;;;21.26;33.51
51249;BME280;39642;47.556;18.728;2023-02-18T00:55:01;99780.13;;;21.25;33.42
51249;BME280;39642;47.556;18.728;2023-02-18T00:57:26;99782.78;;;21.25;33.44
51249;BME280;39642;47.556;18.728;2023-02-18T00:59:52;99765.19;;;21.24;33.45
51249;BME280;39642;47.556;18.728;2023-02-18T01:02:18;99770.50;;;21.24;33.48
51249;BME280;39642;47.556;18.728;2023-02-18T01:04:44;99767.84;;;21.24;33.44
51249;BME280;39642;47.556;18.728;2023-02-18T01:07:10;99759.97;;;21.22;33.51
51249;BME280;39642;47.556;18.728;2023-02-18T01:09:36;99759.91;;;21.24;33.46
51249;BME280;39642;47.556;18.728;2023-02-18T01:12:02;99766.97;;;21.23;33.53
51249;BME280;39642;47.556;18.728;2023-02-18T01:14:28;99759.97;;;21.22;33.49
51249;BME280;39642;47.556;18.728;2023-02-18T01:16:54;99765.28;;;21.22;33.57
51249;BME280;39642;47.556;18.728;2023-02-18T01:19:19;99765.28;;;21.22;33.54
51249;BME280;39642;47.556;18.728;2023-02-18T01:21:45;99769.72;;;21.21;33.52
51249;BME280;39642;47.556;18.728;2023-02-18T01:24:11;99767.09;;;21.21;33.59
51249;BME280;39642;47.556;18.728;2023-02-18T01:26:37;99754.78;;;21.20;33.59
51249;BME280;39642;47.556;18.728;2023-02-18T01:29:03;99758.28;;;21.21;33.59
51249;BME280;39642;47.556;18.728;2023-02-18T01:31:29;99770.66;;;21.20;33.61
51249;BME280;39642;47.556;18.728;2023-02-18T01:33:55;99775.09;;;21.20;33.63
51249;BME280;39642;47.556;18.728;2023-02-18T01:36:21;99768.00;;;21.20;33.58
51249;BME280;39642;47.556;18.728;2023-02-18T01:38:46;99762.72;;;21.20;33.60
51249;BME280;39642;47.556;18.728;2023-02-18T01:41:12;99768.00;;;21.20;33.67
51249;BME280;39642;47.556;18.728;2023-02-18T01:43:38;99765.37;;;21.20;33.68
51249;BME280;39642;47.556;18.728;2023-02-18T01:46:11;99782.13;;;21.21;33.59
51249;BME280;39642;47.556;18.728;2023-02-18T01:51:17;99768.00;;;21.20;33.64
51249;BME280;39642;47.556;18.728;2023-02-18T01:57:13;99765.37;;;21.20;33.59
51249;BME280;39642;47.556;18.728;2023-02-18T01:59:44;99766.31;;;21.19;33.65
51249;BME280;39642;47.556;18.728;2023-02-18T02:02:14;99780.50;;;21.18;33.68
51249;BME280;39642;47.556;18.728;2023-02-18T02:04:42;99771.63;;;21.19;33.61
51249;BME280;39642;47.556;18.728;2023-02-18T02:07:08;99758.47;;;21.18;33.61
51249;BME280;39642;47.556;18.728;2023-02-18T02:09:35;99769.91;;;21.18;33.60
51249;BME280;39642;47.556;18.728;2023-02-18T02:31:26;99745.31;;;21.16;33.63
51249;BME280;39642;47.556;18.728;2023-02-18T02:42:58;99753.38;;;21.15;33.69
51249;BME280;39642;47.556;18.728;2023-02-18T02:45:57;99765.75;;;21.14;33.64
51249;BME280;39642;47.556;18.728;2023-02-18T02:53:33;99758.75;;;21.13;33.65
51249;BME280;39642;47.556;18.728;2023-02-18T02:55:59;99779.94;;;21.13;33.72
51249;BME280;39642;47.556;18.728;2023-02-18T02:58:25;99756.09;;;21.13;33.69
51249;BME280;39642;47.556;18.728;2023-02-18T03:01:08;99751.78;;;21.12;33.71
51249;BME280;39642;47.556;18.728;2023-02-18T03:03:47;99757.91;;;21.13;33.70
51249;BME280;39642;47.556;18.728;2023-02-18T03:06:45;99762.34;;;21.12;33.66
51249;BME280;39642;47.556;18.728;2023-02-18T03:11:59;99776.53;;;21.11;33.70
51249;BME280;39642;47.556;18.728;2023-02-18T03:14:29;99750.16;;;21.10;33.72
51249;BME280;39642;47.556;18.728;2023-02-18T03:17:44;99766.06;;;21.10;33.70
51249;BME280;39642;47.556;18.728;2023-02-18T03:19:54;99774.84;;;21.10;33.73
51249;BME280;39642;47.556;18.728;2023-02-18T03:22:26;99778.41;;;21.09;33.74
51249;BME280;39642;47.556;18.728;2023-02-18T03:24:55;99772.19;;;21.10;33.72
51249;BME280;39642;47.556;18.728;2023-02-18T03:27:29;99777.47;;;21.10;33.76
51249;BME280;39642;47.556;18.728;2023-02-18T03:30:02;99774.84;;;21.10;33.74
51249;BME280;39642;47.556;18.728;2023-02-18T03:32:29;99768.69;;;21.10;33.77
51249;BME280;39642;47.556;18.728;2023-02-18T03:35:03;99777.47;;;21.10;33.72
51249;BME280;39642;47.556;18.728;2023-02-18T03:37:32;99767.75;;;21.11;33.72
51249;BME280;39642;47.556;18.728;2023-02-18T03:40:02;99765.16;;;21.09;33.74
51249;BME280;39642;47.556;18.728;2023-02-18T03:42:29;99767.81;;;21.09;33.78
51249;BME280;39642;47.556;18.728;2023-02-18T03:44:55;99771.34;;;21.10;33.74
51249;BME280;39642;47.556;18.728;2023-02-18T03:47:21;99762.53;;;21.09;33.78
51249;BME280;39642;47.556;18.728;2023-02-18T03:49:47;99769.62;;;21.09;33.79
51249;BME280;39642;47.556;18.728;2023-02-18T03:52:13;99766.06;;;21.10;33.79
51249;BME280;39642;47.556;18.728;2023-02-18T03:54:38;99762.53;;;21.09;33.75
51249;BME280;39642;47.556;18.728;2023-02-18T03:57:04;99773.13;;;21.09;33.78
51249;BME280;39642;47.556;18.728;2023-02-18T03:59:30;99771.34;;;21.10;33.73
51249;BME280;39642;47.556;18.728;2023-02-18T04:01:56;99765.16;;;21.09;33.81
51249;BME280;39642;47.556;18.728;2023-02-18T04:04:22;99782.00;;;21.08;33.83
51249;BME280;39642;47.556;18.728;2023-02-18T04:06:48;99786.34;;;21.09;33.81
51249;BME280;39642;47.556;18.728;2023-02-18T04:09:14;99784.66;;;21.08;33.80
51249;BME280;39642;47.556;18.728;2023-02-18T04:11:40;99789.13;;;21.08;33.79
51249;BME280;39642;47.556;18.728;2023-02-18T04:14:07;99779.37;;;21.08;33.79
51249;BME280;39642;47.556;18.728;2023-02-18T04:16:33;99788.16;;;21.09;33.80
51249;BME280;39642;47.556;18.728;2023-02-18T04:18:59;99791.75;;;21.08;33.85
51249;BME280;39642;47.556;18.728;2023-02-18T04:21:25;99788.25;;;21.07;33.80
51249;BME280;39642;47.556;18.728;2023-02-18T04:23:50;99796.19;;;21.07;33.81
51249;BME280;39642;47.556;18.728;2023-02-18T04:26:16;99805.00;;;21.08;33.82
51249;BME280;39642;47.556;18.728;2023-02-18T04:28:42;99805.94;;;21.07;33.81
51249;BME280;39642;47.556;18.728;2023-02-18T04:31:08;99800.63;;;21.07;33.82
51249;BME280;39642;47.556;18.728;2023-02-18T04:33:34;99805.94;;;21.07;33.83
51249;BME280;39642;47.556;18.728;2023-02-18T04:36:00;99802.44;;;21.06;33.83
51249;BME280;39642;47.556;18.728;2023-02-18T04:38:26;99804.25;;;21.06;33.84
51249;BME280;39642;47.556;18.728;2023-02-18T04:40:51;99801.59;;;21.06;33.82
51249;BME280;39642;47.556;18.728;2023-02-18T04:43:17;99806.00;;;21.05;33.83
51249;BME280;39642;47.556;18.728;2023-02-18T04:45:43;99796.28;;;21.06;33.87
51249;BME280;39642;47.556;18.728;2023-02-18T04:48:09;99802.53;;;21.05;33.90
51249;BME280;39642;47.556;18.728;2023-02-18T04:50:35;99787.47;;;21.05;33.88
51249;BME280;39642;47.556;18.728;2023-02-18T04:53:01;99793.72;;;21.04;33.88
51249;BME280;39642;47.556;18.728;2023-02-18T04:55:27;99799.88;;;21.05;33.87
51249;BME280;39642;47.556;18.728;2023-02-18T04:57:52;99806.00;;;21.05;33.90
51249;BME280;39642;47.556;18.728;2023-02-18T05:00:19;99808.66;;;21.05;33.91
51249;BME280;39642;47.556;18.728;2023-02-18T05:02:45;99804.31;;;21.04;33.91
51249;BME280;39642;47.556;18.728;2023-02-18T05:05:12;99809.63;;;21.04;33.90
51249;BME280;39642;47.556;18.728;2023-02-18T05:07:38;99814.91;;;21.04;33.91
51249;BME280;39642;47.556;18.728;2023-02-18T05:10:05;99825.50;;;21.04;33.92
51249;BME280;39642;47.556;18.728;2023-02-18T05:12:31;99839.69;;;21.03;33.93
51249;BME280;39642;47.556;18.728;2023-02-18T05:14:57;99849.31;;;21.04;33.94
51249;BME280;39642;47.556;18.728;2023-02-18T05:17:23;99850.16;;;21.05;33.94
51249;BME280;39642;47.556;18.728;2023-02-18T05:19:48;99851.97;;;21.04;33.97
51249;BME280;39642;47.556;18.728;2023-02-18T05:22:14;99851.97;;;21.04;33.95
51249;BME280;39642;47.556;18.728;2023-02-18T05:24:40;99850.28;;;21.03;33.99
51249;BME280;39642;47.556;18.728;2023-02-18T05:27:06;99851.13;;;21.04;33.97
51249;BME280;39642;47.556;18.728;2023-02-18T05:29:32;99851.13;;;21.04;33.96
51249;BME280;39642;47.556;18.728;2023-02-18T05:31:58;99853.78;;;21.04;33.97
51249;BME280;39642;47.556;18.728;2023-02-18T05:34:24;99861.72;;;21.04;33.98
51249;BME280;39642;47.556;18.728;2023-02-18T05:36:49;99867.00;;;21.04;33.96
51249;BME280;39642;47.556;18.728;2023-02-18T05:39:15;99866.16;;;21.03;33.99
51249;BME280;39642;47.556;18.728;2023-02-18T05:41:41;99874.13;;;21.03;33.98
51249;BME280;39642;47.556;18.728;2023-02-18T05:44:07;99887.34;;;21.03;33.95
51249;BME280;39642;47.556;18.728;2023-02-18T05:46:51;99892.66;;;21.03;33.99
51249;BME280;39642;47.556;18.728;2023-02-18T05:49:17;99910.28;;;21.03;34.00
51249;BME280;39642;47.556;18.728;2023-02-18T05:51:43;99908.53;;;21.03;33.98
51249;BME280;39642;47.556;18.728;2023-02-18T05:54:09;99912.94;;;21.03;34.02
51249;BME280;39642;47.556;18.728;2023-02-18T05:56:35;99917.41;;;21.02;34.05
51249;BME280;39642;47.556;18.728;2023-02-18T05:59:01;99905.12;;;21.01;34.07
51249;BME280;39642;47.556;18.728;2023-02-18T06:01:27;99910.41;;;21.01;34.10
51249;BME280;39642;47.556;18.728;2023-02-18T06:03:52;99905.12;;;21.01;34.13
51249;BME280;39642;47.556;18.728;2023-02-18T06:06:18;99898.94;;;21.00;34.13
51249;BME280;39642;47.556;18.728;2023-02-18T06:08:44;99913.91;;;21.02;34.17
51249;BME280;39642;47.556;18.728;2023-02-18T06:11:10;99908.69;;;21.00;34.19
51249;BME280;39642;47.556;18.728;2023-02-18T06:13:36;99908.69;;;21.00;34.20
51249;BME280;39642;47.556;18.728;2023-02-18T06:16:02;99912.19;;;21.00;34.21
51249;BME280;39642;47.556;18.728;2023-02-18T06:18:28;99921.00;;;21.01;34.22
51249;BME280;39642;47.556;18.728;2023-02-18T06:20:54;99942.19;;;21.01;34.21
51249;BME280;39642;47.556;18.728;2023-02-18T06:23:20;99938.66;;;21.00;34.23
51249;BME280;39642;47.556;18.728;2023-02-18T06:25:47;99929.03;;;20.99;34.27
51249;BME280;39642;47.556;18.728;2023-02-18T06:28:13;99909.53;;;21.00;34.28
51249;BME280;39642;47.556;18.728;2023-02-18T06:30:39;99910.50;;;20.99;34.28
51249;BME280;39642;47.556;18.728;2023-02-18T06:33:05;99904.34;;;20.99;34.29
51249;BME280;39642;47.556;18.728;2023-02-18T06:35:31;99915.78;;;20.99;34.29
51249;BME280;39642;47.556;18.728;2023-02-18T06:37:57;99909.66;;;20.99;34.31
51249;BME280;39642;47.556;18.728;2023-02-18T06:40:23;99909.66;;;20.99;34.35
51249;BME280;39642;47.556;18.728;2023-02-18T06:42:49;99912.28;;;20.99;34.35
51249;BME280;39642;47.556;18.728;2023-02-18T06:45:14;99918.44;;;20.99;34.35
51249;BME280;39642;47.556;18.728;2023-02-18T06:47:40;99918.44;;;20.99;34.36
51249;BME280;39642;47.556;18.728;2023-02-18T06:50:06;99922.78;;;21.00;34.34
51249;BME280;39642;47.556;18.728;2023-02-18T06:52:32;99930.72;;;21.00;34.35
51249;BME280;39642;47.556;18.728;2023-02-18T06:54:59;99929.88;;;21.00;34.36
51249;BME280;39642;47.556;18.728;2023-02-18T06:57:25;99925.53;;;20.99;34.35
51249;BME280;39642;47.556;18.728;2023-02-18T06:59:51;99931.59;;;21.01;34.33
51249;BME280;39642;47.556;18.728;2023-02-18T07:02:17;99939.53;;;21.01;34.36
51249;BME280;39642;47.556;18.728;2023-02-18T07:04:43;99934.25;;;21.01;34.36
51249;BME280;39642;47.556;18.728;2023-02-18T07:07:10;99932.44;;;21.02;34.33
51249;BME280;39642;47.556;18.728;2023-02-18T07:09:36;99944.72;;;21.03;34.35
51249;BME280;39642;47.556;18.728;2023-02-18T07:12:02;99950.97;;;21.02;34.34
51249;BME280;39642;47.556;18.728;2023-02-18T07:14:28;99939.41;;;21.03;34.34
51249;BME280;39642;47.556;18.728;2023-02-18T07:16:54;99948.31;;;21.02;34.36
51249;BME280;39642;47.556;18.728;2023-02-18T07:19:20;99954.47;;;21.02;34.33
51249;BME280;39642;47.556;18.728;2023-02-18T07:21:46;99959.75;;;21.02;34.38
51249;BME280;39642;47.556;18.728;2023-02-18T07:24:12;99952.66;;;21.03;34.36
51249;BME280;39642;47.556;18.728;2023-02-18T07:26:37;99950.00;;;21.03;34.33
51249;BME280;39642;47.556;18.728;2023-02-18T07:29:03;99951.81;;;21.02;34.35
51249;BME280;39642;47.556;18.728;2023-02-18T07:31:29;99951.81;;;21.02;34.36
51249;BME280;39642;47.556;18.728;2023-02-18T07:33:55;99944.72;;;21.03;34.36
51249;BME280;39642;47.556;18.728;2023-02-18T07:36:21;99941.22;;;21.02;34.38
51249;BME280;39642;47.556;18.728;2023-02-18T07:38:47;99943.78;;;21.04;34.34
51249;BME280;39642;47.556;18.728;2023-02-18T07:41:18;99955.22;;;21.04;34.41
51249;BME280;39642;47.556;18.728;2023-02-18T07:43:44;99941.97;;;21.04;34.39
51249;BME280;39642;47.556;18.728;2023-02-18T07:46:10;99941.03;;;21.05;34.37
51249;BME280;39642;47.556;18.728;2023-02-18T07:48:36;99949.84;;;21.06;34.40
51249;BME280;39642;47.556;18.728;2023-02-18T07:51:07;99940.03;;;21.08;34.33
51249;BME280;39642;47.556;18.728;2023-02-18T07:53:33;99940.03;;;21.08;34.33
51249;BME280;39642;47.556;18.728;2023-02-18T07:56:00;99940.78;;;21.10;34.36
51249;BME280;39642;47.556;18.728;2023-02-18T07:58:33;99933.69;;;21.10;34.36
51249;BME280;39642;47.556;18.728;2023-02-18T08:01:04;99930.09;;;21.11;34.25
51249;BME280;39642;47.556;18.728;2023-02-18T08:03:31;99926.50;;;21.12;34.29
51249;BME280;39642;47.556;18.728;2023-02-18T08:05:59;99926.50;;;21.12;34.21
51249;BME280;39642;47.556;18.728;2023-02-18T08:08:28;99923.75;;;21.14;34.35
51249;BME280;39642;47.556;18.728;2023-02-18T08:10:56;99927.28;;;21.14;34.21
51249;BME280;39642;47.556;18.728;2023-02-18T08:13:22;99930.78;;;21.15;34.25
51249;BME280;39642;47.556;18.728;2023-02-18T08:15:48;99928.97;;;21.15;34.12
51249;BME280;39642;47.556;18.728;2023-02-18T08:18:17;99938.72;;;21.15;34.17
51249;BME280;39642;47.556;18.728;2023-02-18T08:20:44;99936.91;;;21.15;34.06
51249;BME280;39642;47.556;18.728;2023-02-18T08:23:10;99939.56;;;21.15;34.15
51249;BME280;39642;47.556;18.728;2023-02-18T08:25:36;99939.56;;;21.15;34.11
51249;BME280;39642;47.556;18.728;2023-02-18T08:28:02;99937.75;;;21.16;34.14
51249;BME280;39642;47.556;18.728;2023-02-18T08:30:27;99937.88;;;21.14;34.21
51249;BME280;39642;47.556;18.728;2023-02-18T08:32:53;99954.59;;;21.15;34.19
51249;BME280;39642;47.556;18.728;2023-02-18T08:35:19;99959.91;;;21.15;34.15
51249;BME280;39642;47.556;18.728;2023-02-18T08:37:45;99948.47;;;21.14;34.37
51249;BME280;39642;47.556;18.728;2023-02-18T08:40:12;99937.00;;;21.14;34.39
51249;BME280;39642;47.556;18.728;2023-02-18T08:42:38;99938.78;;;21.13;34.28
51249;BME280;39642;47.556;18.728;2023-02-18T08:45:05;99934.34;;;21.14;34.22
51249;BME280;39642;47.556;18.728;2023-02-18T08:47:32;99930.84;;;21.13;34.23
51249;BME280;39642;47.556;18.728;2023-02-18T08:49:58;99936.16;;;21.13;34.28
51249;BME280;39642;47.556;18.728;2023-02-18T08:52:24;99928.22;;;21.13;34.28
51249;BME280;39642;47.556;18.728;2023-02-18T08:54:50;99937.00;;;21.14;34.22
51249;BME280;39642;47.556;18.728;2023-02-18T08:57:16;99930.84;;;21.13;34.28
51249;BME280;39642;47.556;18.728;2023-02-18T08:59:42;99945.91;;;21.13;34.28
51249;BME280;39642;47.556;18.728;2023-02-18T09:02:12;99941.44;;;21.13;34.34
51249;BME280;39642;47.556;18.728;2023-02-18T09:04:38;99938.78;;;21.13;34.35
51249;BME280;39642;47.556;18.728;2023-02-18T09:07:04;99922.06;;;21.13;34.36
51249;BME280;39642;47.556;18.728;2023-02-18T09:09:30;99930.84;;;21.13;34.36
51249;BME280;39642;47.556;18.728;2023-02-18T09:11:56;99925.56;;;21.13;34.34
51249;BME280;39642;47.556;18.728;2023-02-18T09:14:22;99922.84;;;21.15;34.29
51249;BME280;39642;47.556;18.728;2023-02-18T09:16:48;99923.69;;;21.15;34.29
51249;BME280;39642;47.556;18.728;2023-02-18T09:19:16;99917.34;;;21.18;34.31
51249;BME280;39642;47.556;18.728;2023-02-18T09:21:42;99915.53;;;21.18;34.27
51249;BME280;39642;47.556;18.728;2023-02-18T09:24:08;99915.47;;;21.20;34.26
51249;BME280;39642;47.556;18.728;2023-02-18T09:26:35;99902.28;;;21.18;34.27
51249;BME280;39642;47.556;18.728;2023-02-18T09:29:00;99914.63;;;21.19;34.31
51249;BME280;39642;47.556;18.728;2023-02-18T09:31:27;99912.88;;;21.18;34.35
51249;BME280;39642;47.556;18.728;2023-02-18T09:34:03;99912.03;;;21.18;34.48
51249;BME280;39642;47.556;18.728;2023-02-18T09:36:29;99916.50;;;21.17;34.40
51249;BME280;39642;47.556;18.728;2023-02-18T09:38:55;99921.78;;;21.17;34.41
51249;BME280;39642;47.556;18.728;2023-02-18T09:41:42;99924.44;;;21.17;34.44
51249;BME280;39642;47.556;18.728;2023-02-18T09:44:33;99935.03;;;21.17;34.43
51249;BME280;39642;47.556;18.728;2023-02-18T09:47:18;99920.06;;;21.16;34.43
51249;BME280;39642;47.556;18.728;2023-02-18T09:49:53;99929.75;;;21.17;34.44
51249;BME280;39642;47.556;18.728;2023-02-18T09:52:23;99921.78;;;21.17;34.48
51249;BME280;39642;47.556;18.728;2023-02-18T09:54:50;99919.22;;;21.16;34.44
51249;BME280;39642;47.556;18.728;2023-02-18T09:57:27;99917.41;;;21.16;34.49
51249;BME280;39642;47.556;18.728;2023-02-18T09:59:59;99917.41;;;21.16;34.50
51249;BME280;39642;47.556;18.728;2023-02-18T10:02:26;99920.00;;;21.18;34.47
51249;BME280;39642;47.556;18.728;2023-02-18T10:04:53;99923.59;;;21.17;34.46
51249;BME280;39642;47.556;18.728;2023-02-18T10:07:25;99924.44;;;21.17;34.43
51249;BME280;39642;47.556;18.728;2023-02-18T10:09:54;99920.84;;;21.18;34.49
51249;BME280;39642;47.556;18.728;2023-02-18T10:12:24;99920.00;;;21.18;34.53
51249;BME280;39642;47.556;18.728;2023-02-18T10:14:53;99913.84;;;21.17;34.56
51249;BME280;39642;47.556;18.728;2023-02-18T10:17:22;99913.84;;;21.17;34.51
51249;BME280;39642;47.556;18.728;2023-02-18T10:19:50;99909.41;;;21.18;34.56
51249;BME280;39642;47.556;18.728;2023-02-18T10:22:17;99903.25;;;21.17;34.57
51249;BME280;39642;47.556;18.728;2023-02-18T10:24:54;99907.59;;;21.18;34.57
51249;BME280;39642;47.556;18.728;2023-02-18T10:27:27;99900.59;;;21.17;34.60
51249;BME280;39642;47.556;18.728;2023-02-18T10:32:35;99908.56;;;21.17;34.60
51249;BME280;39642;47.556;18.728;2023-02-18T10:35:24;99902.41;;;21.17;34.73
51249;BME280;39642;47.556;18.728;2023-02-18T10:38:19;99908.56;;;21.17;34.64
51249;BME280;39642;47.556;18.728;2023-02-18T10:41:02;99897.13;;;21.17;34.59
51249;BME280;39642;47.556;18.728;2023-02-18T10:43:43;99898.88;;;21.16;34.63
51249;BME280;39642;47.556;18.728;2023-02-18T10:51:36;99891.06;;;21.15;34.67
51249;BME280;39642;47.556;18.728;2023-02-18T10:54:05;99889.34;;;21.14;34.73
51249;BME280;39642;47.556;18.728;2023-02-18T10:56:41;99880.53;;;21.13;34.73
51249;BME280;39642;47.556;18.728;2023-02-18T11:01:37;99885.00;;;21.13;34.79
51249;BME280;39642;47.556;18.728;2023-02-18T11:04:15;99882.34;;;21.13;34.78
51249;BME280;39642;47.556;18.728;2023-02-18T11:06:50;99877.06;;;21.13;34.83
51249;BME280;39642;47.556;18.728;2023-02-18T11:09:45;99866.53;;;21.11;34.83
51249;BME280;39642;47.556;18.728;2023-02-18T11:12:54;99864.75;;;21.12;34.84
51249;BME280;39642;47.556;18.728;2023-02-18T11:15:22;99868.34;;;21.11;34.84
51249;BME280;39642;47.556;18.728;2023-02-18T11:17:52;99861.25;;;21.11;34.83
51249;BME280;39642;47.556;18.728;2023-02-18T11:23:13;99854.25;;;21.10;34.93
51249;BME280;39642;47.556;18.728;2023-02-18T11:25:40;99846.31;;;21.10;35.04
51249;BME280;39642;47.556;18.728;2023-02-18T11:30:44;99845.47;;;21.10;34.94
51249;BME280;39642;47.556;18.728;2023-02-18T11:33:20;99833.16;;;21.09;35.03
51249;BME280;39642;47.556;18.728;2023-02-18T11:35:54;99829.69;;;21.08;35.00
51249;BME280;39642;47.556;18.728;2023-02-18T11:38:34;99829.69;;;21.08;35.13
51249;BME280;39642;47.556;18.728;2023-02-18T11:41:19;99820.78;;;21.09;35.02
51249;BME280;39642;47.556;18.728;2023-02-18T11:43:49;99824.28;;;21.10;35.42
51249;BME280;39642;47.556;18.728;2023-02-18T11:46:22;99819.00;;;21.10;35.12
51249;BME280;39642;47.556;18.728;2023-02-18T11:48:49;99812.75;;;21.11;35.00
51249;BME280;39642;47.556;18.728;2023-02-18T12:03:57;99790.53;;;21.13;35.22
51249;BME280;39642;47.556;18.728;2023-02-18T12:06:32;99791.66;;;21.09;35.20
51249;BME280;39642;47.556;18.728;2023-02-18T12:09:05;99787.13;;;21.11;35.34
51249;BME280;39642;47.556;18.728;2023-02-18T12:11:39;99782.78;;;21.10;35.27
51249;BME280;39642;47.556;18.728;2023-02-18T12:14:17;99776.62;;;21.10;35.29
51249;BME280;39642;47.556;18.728;2023-02-18T12:19:43;99767.06;;;21.07;35.37
51249;BME280;39642;47.556;18.728;2023-02-18T12:39:35;99738.91;;;21.06;35.41
51249;BME280;39642;47.556;18.728;2023-02-18T12:45:27;99730.97;;;21.06;35.41
51249;BME280;39642;47.556;18.728;2023-02-18T12:54:03;99723.00;;;21.06;35.40
51249;BME280;39642;47.556;18.728;2023-02-18T12:56:58;99721.28;;;21.05;35.42
51249;BME280;39642;47.556;18.728;2023-02-18T13:02:37;99714.22;;;21.06;35.49
51249;BME280;39642;47.556;18.728;2023-02-18T13:05:24;99703.72;;;21.04;35.46
51249;BME280;39642;47.556;18.728;2023-02-18T13:13:18;99702.88;;;21.04;35.51
51249;BME280;39642;47.556;18.728;2023-02-18T13:15:49;99701.06;;;21.04;35.52
51249;BME280;39642;47.556;18.728;2023-02-18T13:18:37;99695.87;;;21.03;35.50
51249;BME280;39642;47.556;18.728;2023-02-18T13:21:06;99695.87;;;21.03;35.66
51249;BME280;39642;47.556;18.728;2023-02-18T13:23:37;99688.03;;;21.01;35.68
51249;BME280;39642;47.556;18.728;2023-02-18T13:26:06;99700.41;;;21.00;35.72
51249;BME280;39642;47.556;18.728;2023-02-18T13:34:31;99681.87;;;21.00;35.61
51249;BME280;39642;47.556;18.728;2023-02-18T13:37:13;99673.09;;;21.00;35.74
51249;BME280;39642;47.556;18.728;2023-02-18T13:39:48;99666.19;;;20.97;35.78
51249;BME280;39642;47.556;18.728;2023-02-18T13:47:45;99662.72;;;20.97;35.75
51249;BME280;39642;47.556;18.728;2023-02-18T13:53:13;99657.41;;;20.97;35.78
51249;BME280;39642;47.556;18.728;2023-02-18T13:56:00;99644.19;;;20.97;35.75
51249;BME280;39642;47.556;18.728;2023-02-18T13:58:35;99643.22;;;20.98;35.74
51249;BME280;39642;47.556;18.728;2023-02-18T14:06:17;99627.44;;;20.96;35.76
51249;BME280;39642;47.556;18.728;2023-02-18T14:08:44;99622.16;;;20.96;35.83
51249;BME280;39642;47.556;18.728;2023-02-18T14:19:54;99605.41;;;20.96;35.82
51249;BME280;39642;47.556;18.728;2023-02-18T14:22:31;99600.09;;;20.96;35.82
51249;BME280;39642;47.556;18.728;2023-02-18T14:27:33;99597.59;;;20.94;35.91
51249;BME280;39642;47.556;18.728;2023-02-18T14:30:13;99588.75;;;20.94;35.96
51249;BME280;39642;47.556;18.728;2023-02-18T14:32:43;99587.91;;;20.93;35.92
51249;BME280;39642;47.556;18.728;2023-02-18T14:38:32;99568.56;;;20.93;35.83
51249;BME280;39642;47.556;18.728;2023-02-18T14:46:48;99570.25;;;20.94;35.78
51249;BME280;39642;47.556;18.728;2023-02-18T14:52:03;99567.59;;;20.94;35.76
51249;BME280;39642;47.556;18.728;2023-02-18T14:54:30;99562.28;;;20.94;35.71
51249;BME280;39642;47.556;18.728;2023-02-18T14:56:59;99558.81;;;20.93;35.72
51249;BME280;39642;47.556;18.728;2023-02-18T14:59:33;99548.22;;;20.93;35.77
51249;BME280;39642;47.556;18.728;2023-02-18T15:01:59;99555.31;;;20.93;35.69
51249;BME280;39642;47.556;18.728;2023-02-18T15:04:25;99542.09;;;20.93;35.71
51249;BME280;39642;47.556;18.728;2023-02-18T15:07:04;99545.56;;;20.93;35.76
51249;BME280;39642;47.556;18.728;2023-02-18T15:09:33;99541.25;;;20.92;35.70
51249;BME280;39642;47.556;18.728;2023-02-18T15:12:04;99535.94;;;20.92;35.73
51249;BME280;39642;47.556;18.728;2023-02-18T15:14:35;99535.09;;;20.92;35.72
51249;BME280;39642;47.556;18.728;2023-02-18T15:17:03;99535.94;;;20.92;35.73
51249;BME280;39642;47.556;18.728;2023-02-18T15:19:41;99537.75;;;20.92;35.86
51249;BME280;39642;47.556;18.728;2023-02-18T15:22:18;99538.69;;;20.91;35.88
51249;BME280;39642;47.556;18.728;2023-02-18T15:24:44;99531.72;;;20.90;35.92
51249;BME280;39642;47.556;18.728;2023-02-18T15:27:24;99537.00;;;20.90;35.93
51249;BME280;39642;47.556;18.728;2023-02-18T15:29:55;99529.16;;;20.88;35.90
51249;BME280;39642;47.556;18.728;2023-02-18T15:32:24;99525.53;;;20.89;35.88